createdAt,value
2018-02-07T00:00:08.494Z,28.10
2018-02-07T00:02:37.079Z,29.30
2018-02-07T00:05:05.350Z,27.20
2018-02-07T00:07:33.835Z,23.60
2018-02-07T00:10:02.352Z,23.00
2018-02-07T00:12:30.899Z,22.50
2018-02-07T00:14:59.690Z,20.23
2018-02-07T00:17:27.999Z,21.47
2018-02-07T00:19:56.856Z,23.47
2018-02-07T00:22:25.330Z,23.40
2018-02-07T00:24:53.550Z,23.10
2018-02-07T00:27:22.086Z,23.87
2018-02-07T00:29:50.979Z,23.40
2018-02-07T00:32:19.662Z,26.77
2018-02-07T00:34:48.248Z,25.57
2018-02-07T00:37:16.728Z,22.87
2018-02-07T00:39:45.514Z,25.40
2018-02-07T00:42:14.198Z,22.40
2018-02-07T00:44:42.802Z,20.87
2018-02-07T00:47:11.366Z,27.87
2018-02-07T00:49:39.847Z,27.03
2018-02-07T00:52:08.243Z,26.60
2018-02-07T00:54:36.907Z,25.37
2018-02-07T00:57:05.400Z,23.70
2018-02-07T00:59:33.788Z,23.37
2018-02-07T01:02:02.453Z,24.27
2018-02-07T01:04:31.039Z,23.67
2018-02-07T01:06:59.522Z,22.90
2018-02-07T01:09:27.889Z,24.60
2018-02-07T01:11:56.578Z,26.00
2018-02-07T01:14:24.971Z,23.17
2018-02-07T01:16:53.442Z,23.50
2018-02-07T01:19:22.225Z,22.67
2018-02-07T01:21:50.891Z,24.00
2018-02-07T01:24:19.598Z,20.50
2018-02-07T01:26:48.282Z,23.13
2018-02-07T01:29:16.558Z,22.07
2018-02-07T01:31:45.324Z,30.90
2018-02-07T01:34:13.466Z,34.20
2018-02-07T01:36:42.111Z,31.53
2018-02-07T01:39:10.674Z,31.33
2018-02-07T01:41:39.161Z,44.07
2018-02-07T01:44:07.641Z,32.80
2018-02-07T01:46:36.033Z,31.20
2018-02-07T01:49:04.910Z,31.97
2018-02-07T01:51:33.389Z,33.53
2018-02-07T01:54:01.678Z,37.53
2018-02-07T01:56:30.252Z,37.27
2018-02-07T01:58:58.714Z,32.33
2018-02-07T02:01:27.321Z,25.63
2018-02-07T02:03:55.793Z,24.10
2018-02-07T02:06:23.997Z,21.40
2018-02-07T02:08:52.346Z,22.70
2018-02-07T02:11:20.827Z,22.07
2018-02-07T02:13:49.409Z,19.27
2018-02-07T02:16:17.889Z,19.77
2018-02-07T02:18:46.270Z,18.23
2018-02-07T02:21:14.954Z,17.63
2018-02-07T02:23:43.416Z,18.10
2018-02-07T02:26:11.814Z,19.67
2018-02-07T02:28:40.398Z,19.73
2018-02-07T02:31:08.685Z,16.60
2018-02-07T02:33:36.951Z,18.20
2018-02-07T02:36:17.453Z,18.53
2018-02-07T02:38:45.791Z,18.17
2018-02-07T02:41:14.675Z,16.77
2018-02-07T02:43:42.843Z,18.90
2018-02-07T02:46:11.336Z,18.60
2018-02-07T02:48:39.914Z,19.73
2018-02-07T02:51:08.906Z,20.23
2018-02-07T02:53:37.570Z,19.43
2018-02-07T02:56:06.070Z,19.80
2018-02-07T02:58:34.655Z,18.70
2018-02-07T03:01:03.018Z,21.73
2018-02-07T03:03:31.413Z,19.90
2018-02-07T03:06:00.194Z,22.37
2018-02-07T03:08:28.678Z,31.40
2018-02-07T03:10:56.955Z,32.43
2018-02-07T03:13:25.349Z,25.90
2018-02-07T03:15:53.810Z,21.67
2018-02-07T03:18:21.986Z,24.20
2018-02-07T03:20:50.561Z,27.83
2018-02-07T03:23:19.047Z,27.07
2018-02-07T03:25:47.338Z,28.07
2018-02-07T03:28:15.702Z,27.63
2018-02-07T03:30:44.183Z,27.73
2018-02-07T03:33:12.557Z,31.10
2018-02-07T03:35:41.255Z,29.80
2018-02-07T03:38:09.936Z,30.47
2018-02-07T03:40:38.506Z,25.90
2018-02-07T03:43:07.245Z,24.97
2018-02-07T03:45:35.881Z,25.33
2018-02-07T03:48:04.678Z,25.20
2018-02-07T03:50:32.841Z,35.30
2018-02-07T03:53:01.633Z,33.40
2018-02-07T03:55:30.526Z,42.60
2018-02-07T03:57:58.907Z,32.03
2018-02-07T04:00:27.181Z,29.77
2018-02-07T04:02:55.454Z,32.10
2018-02-07T04:05:24.137Z,36.30
2018-02-07T04:07:52.722Z,36.47
2018-02-07T04:10:21.254Z,34.23
2018-02-07T04:12:49.578Z,28.53
2018-02-07T04:15:18.146Z,31.80
2018-02-07T04:17:46.543Z,29.93
2018-02-07T04:20:15.130Z,27.00
2018-02-07T04:22:43.302Z,29.47
2018-02-07T04:25:11.674Z,28.60
2018-02-07T04:27:40.114Z,28.87
2018-02-07T04:30:08.640Z,27.30
2018-02-07T04:32:37.322Z,30.30
2018-02-07T04:35:05.711Z,27.77
2018-02-07T04:37:34.132Z,38.93
2018-02-07T04:40:02.453Z,30.93
2018-02-07T04:42:30.934Z,29.87
2018-02-07T04:44:59.421Z,38.40
2018-02-07T04:47:28.082Z,38.90
2018-02-07T04:49:56.286Z,53.87
2018-02-07T04:52:24.962Z,47.90
2018-02-07T04:54:53.555Z,56.23
2018-02-07T04:57:21.925Z,43.43
2018-02-07T04:59:50.402Z,52.93
2018-02-07T05:02:18.779Z,75.70
2018-02-07T05:04:47.173Z,136.10
2018-02-07T05:07:15.450Z,48.03
2018-02-07T05:09:43.895Z,59.93
2018-02-07T05:12:12.190Z,36.30
2018-02-07T05:14:40.832Z,37.13
2018-02-07T05:17:09.359Z,36.47
2018-02-07T05:19:37.839Z,52.60
2018-02-07T05:22:06.133Z,51.90
2018-02-07T05:24:34.388Z,50.00
2018-02-07T05:27:03.012Z,40.73
2018-02-07T05:29:31.554Z,32.20
2018-02-07T05:32:00.139Z,32.53
2018-02-07T05:34:28.905Z,27.70
2018-02-07T05:36:57.402Z,33.13
2018-02-07T05:39:26.090Z,25.27
2018-02-07T05:41:54.551Z,37.90
2018-02-07T05:44:23.153Z,37.00
2018-02-07T05:46:51.838Z,34.60
2018-02-07T05:49:20.300Z,32.70
2018-02-07T05:51:48.800Z,33.70
2018-02-07T05:54:17.077Z,58.17
2018-02-07T05:56:45.759Z,49.23
2018-02-07T05:59:14.031Z,47.17
2018-02-07T06:01:42.530Z,54.60
2018-02-07T06:04:10.709Z,70.63
2018-02-07T06:06:38.964Z,62.83
2018-02-07T06:09:07.528Z,44.70
2018-02-07T06:11:35.927Z,45.03
2018-02-07T06:14:04.324Z,39.10
2018-02-07T06:16:33.090Z,35.30
2018-02-07T06:19:01.878Z,36.00
2018-02-07T06:21:30.199Z,36.33
2018-02-07T06:23:59.031Z,41.27
2018-02-07T06:26:27.531Z,56.03
2018-02-07T06:28:56.110Z,44.70
2018-02-07T06:31:24.378Z,57.80
2018-02-07T06:33:52.873Z,57.53
2018-02-07T06:36:21.345Z,75.23
2018-02-07T06:38:49.947Z,85.00
2018-02-07T06:41:18.309Z,70.80
2018-02-07T06:43:46.682Z,62.83
2018-02-07T06:46:14.961Z,55.40
2018-02-07T06:48:43.745Z,62.40
2018-02-07T06:51:12.311Z,50.70
2018-02-07T06:53:40.917Z,50.33
2018-02-07T06:56:09.390Z,37.50
2018-02-07T06:58:38.386Z,31.30
2018-02-07T07:01:06.570Z,30.20
2018-02-07T07:03:34.835Z,33.60
2018-02-07T07:06:03.518Z,31.90
2018-02-07T07:08:31.902Z,29.70
2018-02-07T07:11:00.481Z,34.20
2018-02-07T07:13:29.062Z,33.97
2018-02-07T07:15:57.347Z,34.00
2018-02-07T07:18:25.722Z,37.17
2018-02-07T07:20:54.076Z,88.97
2018-02-07T07:23:22.577Z,61.90
2018-02-07T07:25:51.571Z,52.60
2018-02-07T07:28:19.993Z,43.87
2018-02-07T07:30:48.326Z,42.77
2018-02-07T07:33:16.298Z,35.60
2018-02-07T07:35:44.274Z,29.60
2018-02-07T07:38:12.327Z,29.77
2018-02-07T07:40:40.304Z,25.63
2018-02-07T07:43:08.320Z,22.80
2018-02-07T07:45:36.302Z,21.63
2018-02-07T07:48:04.249Z,19.83
2018-02-07T07:50:32.259Z,23.57
2018-02-07T07:53:00.243Z,23.17
2018-02-07T07:55:28.246Z,24.00
2018-02-07T07:57:56.207Z,24.70
2018-02-07T08:00:24.567Z,23.10
2018-02-07T08:02:52.575Z,32.20
2018-02-07T08:05:20.482Z,29.70
2018-02-07T08:07:48.466Z,31.10
2018-02-07T08:10:16.468Z,26.57
2018-02-07T08:12:45.106Z,38.37
2018-02-07T08:15:13.093Z,31.40
2018-02-07T08:17:41.050Z,38.13
2018-02-07T08:20:09.053Z,34.67
2018-02-07T08:22:37.140Z,33.13
2018-02-07T08:25:05.218Z,60.30
2018-02-07T08:27:33.143Z,47.37
2018-02-07T08:30:01.231Z,42.27
2018-02-07T08:32:29.226Z,59.13
2018-02-07T08:34:57.238Z,52.23
2018-02-07T08:37:25.238Z,39.00
2018-02-07T08:39:53.242Z,38.23
2018-02-07T08:42:21.194Z,36.90
2018-02-07T08:44:49.202Z,31.00
2018-02-07T08:47:17.267Z,48.17
2018-02-07T08:49:45.253Z,28.97
2018-02-07T08:52:13.185Z,16.27
2018-02-07T08:54:41.050Z,23.13
2018-02-07T08:57:09.062Z,24.53
2018-02-07T08:59:37.027Z,21.33
2018-02-07T09:02:05.412Z,23.57
2018-02-07T09:04:33.431Z,24.43
2018-02-07T09:07:01.450Z,23.57
2018-02-07T09:09:29.519Z,31.07
2018-02-07T09:11:57.533Z,32.97
2018-02-07T09:14:25.493Z,25.93
2018-02-07T09:16:53.494Z,42.23
2018-02-07T09:19:21.493Z,32.53
2018-02-07T09:21:49.771Z,33.97
2018-02-07T09:24:18.156Z,51.60
2018-02-07T09:26:47.156Z,27.03
2018-02-07T09:29:15.731Z,63.97
2018-02-07T09:31:44.305Z,37.27
2018-02-07T09:34:12.871Z,48.43
2018-02-07T09:36:41.473Z,85.67
2018-02-07T09:39:10.053Z,39.43
2018-02-07T09:41:38.722Z,22.57
2018-02-07T09:44:06.918Z,35.93
2018-02-07T09:46:35.398Z,21.20
2018-02-07T09:49:03.778Z,22.80
2018-02-07T09:51:32.254Z,40.77
2018-02-07T09:54:01.045Z,20.67
2018-02-07T09:56:29.502Z,26.90
2018-02-07T09:58:57.906Z,28.63
2018-02-07T10:01:26.488Z,27.87
2018-02-07T10:03:55.242Z,18.80
2018-02-07T10:06:24.038Z,19.77
2018-02-07T10:08:52.642Z,24.10
2018-02-07T10:11:21.018Z,29.60
2018-02-07T10:13:49.606Z,19.57
2018-02-07T10:16:18.190Z,22.40
2018-02-07T10:18:46.562Z,20.40
2018-02-07T10:21:14.838Z,24.10
2018-02-07T10:23:43.425Z,18.17
2018-02-07T10:26:11.595Z,18.70
2018-02-07T10:28:39.974Z,20.23
2018-02-07T10:31:08.454Z,18.10
2018-02-07T10:33:37.267Z,21.07
2018-02-07T10:36:05.619Z,14.90
2018-02-07T10:38:34.002Z,15.07
2018-02-07T10:41:02.582Z,16.40
2018-02-07T10:43:31.290Z,16.60
2018-02-07T10:46:00.155Z,18.10
2018-02-07T10:48:28.733Z,17.30
2018-02-07T10:50:57.197Z,17.17
2018-02-07T10:53:25.496Z,27.40
2018-02-07T10:55:53.770Z,26.47
2018-02-07T10:58:22.741Z,27.50
2018-02-07T11:00:51.331Z,21.27
2018-02-07T11:03:19.717Z,22.50
2018-02-07T11:05:48.713Z,27.43
2018-02-07T11:08:17.127Z,22.97
2018-02-07T11:10:45.476Z,18.13
2018-02-07T11:13:13.487Z,18.70
2018-02-07T11:15:41.440Z,26.83
2018-02-07T11:18:09.458Z,15.57
2018-02-07T11:20:37.508Z,18.87
2018-02-07T11:23:05.545Z,22.37
2018-02-07T11:25:33.535Z,26.07
2018-02-07T11:28:01.564Z,25.40
2018-02-07T11:30:29.499Z,19.77
2018-02-07T11:32:57.475Z,14.20
2018-02-07T11:35:25.478Z,11.77
2018-02-07T11:37:53.473Z,13.10
2018-02-07T11:40:21.441Z,18.73
2018-02-07T11:42:49.398Z,14.53
2018-02-07T11:45:17.355Z,12.17
2018-02-07T11:47:45.818Z,13.70
2018-02-07T11:50:14.197Z,21.23
2018-02-07T11:52:42.473Z,13.90
2018-02-07T11:55:10.855Z,9.27
2018-02-07T11:57:38.800Z,10.30
2018-02-07T12:00:06.771Z,7.97
2018-02-07T12:02:34.730Z,6.93
2018-02-07T12:05:02.689Z,22.77
2018-02-07T12:07:30.998Z,11.60
2018-02-07T12:09:58.961Z,18.97
2018-02-07T12:12:27.018Z,19.80
2018-02-07T12:14:55.073Z,42.00
2018-02-07T12:17:23.134Z,9.10
2018-02-07T12:19:51.632Z,12.53
2018-02-07T12:22:20.514Z,20.20
2018-02-07T12:24:48.538Z,19.40
2018-02-07T12:27:16.486Z,13.13
2018-02-07T12:29:44.513Z,7.70
2018-02-07T12:32:12.473Z,17.90
2018-02-07T12:34:41.530Z,21.00
2018-02-07T12:37:09.550Z,11.20
2018-02-07T12:39:37.559Z,6.50
2018-02-07T12:42:05.555Z,12.00
2018-02-07T12:44:33.596Z,7.33
2018-02-07T12:47:01.575Z,11.90
2018-02-07T12:49:29.575Z,14.27
2018-02-07T12:51:58.678Z,11.20
2018-02-07T12:54:27.681Z,13.07
2018-02-07T12:56:55.651Z,8.67
2018-02-07T12:59:23.618Z,13.63
2018-02-07T13:01:51.643Z,16.53
2018-02-07T13:04:19.756Z,12.30
2018-02-07T13:06:48.945Z,10.63
2018-02-07T13:09:17.378Z,10.30
2018-02-07T13:11:45.291Z,11.67
2018-02-07T13:14:13.251Z,14.33
2018-02-07T13:16:41.191Z,18.87
2018-02-07T13:19:09.163Z,10.53
2018-02-07T13:21:37.117Z,7.33
2018-02-07T13:24:05.127Z,11.37
2018-02-07T13:26:33.571Z,15.07
2018-02-07T13:29:02.191Z,8.77
2018-02-07T13:31:30.175Z,16.67
2018-02-07T13:33:58.705Z,14.03
2018-02-07T13:36:26.974Z,17.63
2018-02-07T13:38:55.455Z,10.50
2018-02-07T13:41:23.830Z,13.97
2018-02-07T13:43:52.427Z,27.37
2018-02-07T13:46:20.963Z,24.53
2018-02-07T13:48:49.296Z,22.63
2018-02-07T13:51:17.835Z,57.87
2018-02-07T13:53:46.338Z,39.20
2018-02-07T13:56:18.380Z,27.83
2018-02-07T13:58:48.159Z,18.73
2018-02-07T14:01:16.137Z,24.40
2018-02-07T14:03:44.128Z,16.50
2018-02-07T14:06:12.057Z,16.67
2018-02-07T14:08:40.042Z,15.80
2018-02-07T14:11:08.351Z,15.17
2018-02-07T14:13:36.350Z,37.23
2018-02-07T14:16:04.361Z,16.30
2018-02-07T14:18:32.344Z,17.30
2018-02-07T14:21:00.439Z,16.17
2018-02-07T14:23:28.410Z,28.87
2018-02-07T14:25:56.363Z,26.73
2018-02-07T14:28:24.298Z,13.47
2018-02-07T14:30:52.254Z,14.97
2018-02-07T14:33:20.205Z,10.23
2018-02-07T14:35:48.171Z,18.20
2018-02-07T14:38:16.131Z,12.90
2018-02-07T14:40:44.134Z,32.50
2018-02-07T14:43:12.109Z,22.70
2018-02-07T14:45:40.101Z,14.17
2018-02-07T14:48:08.066Z,10.90
2018-02-07T14:50:36.030Z,23.33
2018-02-07T14:53:04.082Z,13.30
2018-02-07T14:55:32.059Z,16.33
2018-02-07T14:58:00.054Z,12.13
2018-02-07T15:00:27.963Z,11.60
2018-02-07T15:02:55.931Z,10.60
2018-02-07T15:05:23.917Z,38.13
2018-02-07T15:07:51.859Z,13.63
2018-02-07T15:10:19.865Z,8.73
2018-02-07T15:12:48.074Z,8.37
2018-02-07T15:15:16.048Z,14.73
2018-02-07T15:17:44.010Z,8.40
2018-02-07T15:20:12.047Z,9.90
2018-02-07T15:22:40.066Z,13.53
2018-02-07T15:25:08.073Z,17.13
2018-02-07T15:27:36.118Z,13.33
2018-02-07T15:30:04.159Z,13.77
2018-02-07T15:32:32.187Z,14.63
2018-02-07T15:35:00.164Z,22.50
2018-02-07T15:37:28.102Z,22.77
2018-02-07T15:39:56.666Z,21.50
2018-02-07T15:42:24.631Z,24.03
2018-02-07T15:44:52.556Z,27.73
2018-02-07T15:47:20.574Z,20.10
2018-02-07T15:49:48.490Z,19.57
2018-02-07T15:52:16.478Z,22.70
2018-02-07T15:54:44.446Z,23.93
2018-02-07T15:57:12.392Z,18.93
2018-02-07T15:59:40.918Z,22.73
2018-02-07T16:02:08.967Z,25.60
2018-02-07T16:04:37.007Z,18.87
2018-02-07T16:07:05.027Z,19.60
2018-02-07T16:09:33.033Z,21.73
2018-02-07T16:12:01.106Z,14.23
2018-02-07T16:14:29.551Z,12.13
2018-02-07T16:16:57.499Z,12.43
2018-02-07T16:19:25.568Z,15.83
2018-02-07T16:21:53.490Z,18.00
2018-02-07T16:24:21.557Z,24.47
2018-02-07T16:26:49.509Z,46.73
2018-02-07T16:29:17.529Z,692.57
2018-02-07T16:31:45.490Z,671.27
2018-02-07T16:34:13.449Z,226.07
2018-02-07T16:36:41.473Z,110.10
2018-02-07T16:39:09.425Z,90.47
2018-02-07T16:41:37.913Z,43.37
2018-02-07T16:44:06.813Z,35.33
2018-02-07T16:46:35.183Z,28.83
2018-02-07T16:49:03.870Z,34.40
2018-02-07T16:51:32.250Z,25.20
2018-02-07T16:54:00.730Z,40.03
2018-02-07T16:56:29.210Z,31.47
2018-02-07T16:58:57.524Z,32.80
2018-02-07T17:01:25.570Z,29.93
2018-02-07T17:03:53.527Z,23.53
2018-02-07T17:06:21.511Z,32.30
2018-02-07T17:08:49.459Z,28.80
2018-02-07T17:11:17.451Z,30.73
2018-02-07T17:13:45.475Z,28.63
2018-02-07T17:16:13.826Z,30.60
2018-02-07T17:18:41.777Z,21.30
2018-02-07T17:21:09.896Z,22.53
2018-02-07T17:23:38.498Z,26.07
2018-02-07T17:26:07.083Z,22.20
2018-02-07T17:28:35.571Z,23.03
2018-02-07T17:31:04.021Z,19.13
2018-02-07T17:33:32.027Z,24.60
2018-02-07T17:36:00.049Z,39.80
2018-02-07T17:38:28.131Z,43.40
2018-02-07T17:40:56.090Z,51.30
2018-02-07T17:43:24.090Z,50.97
2018-02-07T17:45:52.678Z,56.60
2018-02-07T17:48:20.646Z,50.80
2018-02-07T17:50:48.714Z,55.63
2018-02-07T17:53:16.667Z,53.30
2018-02-07T17:55:44.618Z,56.00
2018-02-07T17:58:12.598Z,67.40
2018-02-07T18:00:40.617Z,82.30
2018-02-07T18:03:08.614Z,82.50
2018-02-07T18:05:36.638Z,85.57
2018-02-07T18:08:04.681Z,80.63
2018-02-07T18:10:32.683Z,73.30
2018-02-07T18:13:00.683Z,71.80
2018-02-07T18:15:28.697Z,70.07
2018-02-07T18:17:56.839Z,89.50
2018-02-07T18:20:24.855Z,71.30
2018-02-07T18:22:52.822Z,65.87
2018-02-07T18:25:20.781Z,87.53
2018-02-07T18:27:48.807Z,85.53
2018-02-07T18:30:16.789Z,78.17
2018-02-07T18:32:44.774Z,60.83
2018-02-07T18:35:12.754Z,42.90
2018-02-07T18:37:40.760Z,45.00
2018-02-07T18:40:08.671Z,48.50
2018-02-07T18:42:36.673Z,53.97
2018-02-07T18:45:04.700Z,57.60
2018-02-07T18:47:32.767Z,57.43
2018-02-07T18:50:00.775Z,64.37
2018-02-07T18:52:28.774Z,81.63
2018-02-07T18:54:57.330Z,80.13
2018-02-07T18:57:25.988Z,75.67
2018-02-07T18:59:54.390Z,78.83
2018-02-07T19:02:22.871Z,62.43
2018-02-07T19:04:51.259Z,61.40
2018-02-07T19:07:19.830Z,49.50
2018-02-07T19:09:48.310Z,58.57
2018-02-07T19:12:16.890Z,44.97
2018-02-07T19:14:45.492Z,34.40
2018-02-07T19:17:13.489Z,41.03
2018-02-07T19:19:41.824Z,44.37
2018-02-07T19:22:09.731Z,38.40
2018-02-07T19:24:37.689Z,34.50
2018-02-07T19:27:05.627Z,32.63
2018-02-07T19:29:33.596Z,30.93
2018-02-07T19:32:01.543Z,34.57
2018-02-07T19:34:29.611Z,24.73
2018-02-07T19:36:57.639Z,27.83
2018-02-07T19:39:25.617Z,30.57
2018-02-07T19:41:53.565Z,32.80
2018-02-07T19:44:21.618Z,50.87
2018-02-07T19:46:49.641Z,57.90
2018-02-07T19:49:17.598Z,46.63
2018-02-07T19:51:45.629Z,56.63
2018-02-07T19:54:13.624Z,62.33
2018-02-07T19:56:41.600Z,57.27
2018-02-07T19:59:09.618Z,51.43
2018-02-07T20:01:37.599Z,46.73
2018-02-07T20:04:05.517Z,50.50
2018-02-07T20:06:34.437Z,49.40
2018-02-07T20:09:02.427Z,44.97
2018-02-07T20:11:30.392Z,38.27
2018-02-07T20:13:58.454Z,50.13
2018-02-07T20:16:26.382Z,43.83
2018-02-07T20:18:54.342Z,47.03
2018-02-07T20:21:22.583Z,43.70
2018-02-07T20:23:50.528Z,45.80
2018-02-07T20:26:18.570Z,50.13
2018-02-07T20:28:46.578Z,51.20
2018-02-07T20:31:14.523Z,52.90
2018-02-07T20:33:42.517Z,59.00
2018-02-07T20:36:10.459Z,59.57
2018-02-07T20:38:38.443Z,56.90
2018-02-07T20:41:06.505Z,71.93
2018-02-07T20:43:34.495Z,75.40
2018-02-07T20:46:02.460Z,66.17
2018-02-07T20:48:30.474Z,72.00
2018-02-07T20:50:58.467Z,56.17
2018-02-07T20:53:26.466Z,50.50
2018-02-07T20:55:54.474Z,49.57
2018-02-07T20:58:22.405Z,56.70
2018-02-07T21:00:50.389Z,47.53
2018-02-07T21:03:18.337Z,47.13
2018-02-07T21:05:46.542Z,46.37
2018-02-07T21:08:14.543Z,40.60
2018-02-07T21:10:42.476Z,41.07
2018-02-07T21:13:10.411Z,51.40
2018-02-07T21:15:38.375Z,70.07
2018-02-07T21:18:06.353Z,49.87
2018-02-07T21:20:34.405Z,59.50
2018-02-07T21:23:02.819Z,45.87
2018-02-07T21:25:30.783Z,36.43
2018-02-07T21:27:58.762Z,34.00
2018-02-07T21:30:26.711Z,34.17
2018-02-07T21:32:54.810Z,40.70
2018-02-07T21:35:22.766Z,39.50
2018-02-07T21:37:50.746Z,38.50
2018-02-07T21:40:18.713Z,38.97
2018-02-07T21:42:46.708Z,35.40
2018-02-07T21:45:14.628Z,36.53
2018-02-07T21:47:42.621Z,32.03
2018-02-07T21:50:10.693Z,34.33
2018-02-07T21:52:38.662Z,32.63
2018-02-07T21:55:06.668Z,35.30
2018-02-07T21:57:34.616Z,35.10
2018-02-07T22:00:02.719Z,31.93
2018-02-07T22:02:31.019Z,30.93
2018-02-07T22:04:59.494Z,31.77
2018-02-07T22:07:27.698Z,41.23
2018-02-07T22:09:56.251Z,33.53
2018-02-07T22:12:24.629Z,34.57
2018-02-07T22:14:52.855Z,34.33
2018-02-07T22:17:21.697Z,35.43
2018-02-07T22:19:50.583Z,38.23
2018-02-07T22:22:18.898Z,41.60
2018-02-07T22:24:47.645Z,33.70
2018-02-07T22:27:16.004Z,29.87
2018-02-07T22:29:44.653Z,27.50
2018-02-07T22:32:13.086Z,27.80
2018-02-07T22:34:41.774Z,26.97
2018-02-07T22:37:10.046Z,28.80
2018-02-07T22:39:38.535Z,29.63
2018-02-07T22:42:07.010Z,31.30
2018-02-07T22:44:35.494Z,29.30
2018-02-07T22:47:03.865Z,28.77
2018-02-07T22:49:32.250Z,29.00
2018-02-07T22:52:00.829Z,28.00
2018-02-07T22:54:29.191Z,27.70
2018-02-07T22:56:57.587Z,29.60
2018-02-07T22:59:26.066Z,30.47
2018-02-07T23:01:54.532Z,29.70
2018-02-07T23:04:23.130Z,43.53
2018-02-07T23:06:51.709Z,36.30
2018-02-07T23:09:19.985Z,32.53
2018-02-07T23:11:48.674Z,35.33
2018-02-07T23:14:17.046Z,33.90
2018-02-07T23:16:45.640Z,33.20
2018-02-07T23:19:14.319Z,33.70
2018-02-07T23:21:42.799Z,32.80
2018-02-07T23:24:11.497Z,32.13
2018-02-07T23:26:39.961Z,35.03
2018-02-07T23:29:08.662Z,36.40
2018-02-07T23:31:37.438Z,36.43
2018-02-07T23:34:05.794Z,36.30
2018-02-07T23:36:34.294Z,34.43
2018-02-07T23:39:02.878Z,32.07
2018-02-07T23:41:31.161Z,31.17
2018-02-07T23:43:59.425Z,26.57
2018-02-07T23:46:27.705Z,24.90
2018-02-07T23:48:56.086Z,31.40
2018-02-07T23:51:24.574Z,25.10
2018-02-07T23:53:53.152Z,21.73
2018-02-07T23:56:21.530Z,27.03
2018-02-07T23:58:50.087Z,29.40
